Watertown Regional Airport Watertown US
ICAO: KATY
IATA: ATY
Category: Medium
Scheduled Services: Yes

Elevation: 1749 ft
TransAlt. 18000 ft.

Airport Communications:
ASOS:126.625
MINNEAPOLIS CNTR:128.5
HURON RDO:122.5
CTAF/UNICOM:123.05

KATY Zoom In..

If you have problems with the map follow the link
https://www.worldairports.se/pages/airport.php?
ICAO=KATY

Runways:

(A) RW 12 length 6899 ft width 100 ft
---- / hdg 119

(B) RW 17 length 6894 ft width 100 ft
---- / hdg 174

(C) RW 30 length 6899 ft width 100 ft
---- / hdg 299

(D) RW 35 length 6894 ft width 100 ft
ILS 111.90 / hdg 354

Location; KATY
Day. 26 / Time. 01.53 Zulu
* Altimeter: 29.91
* Temperature: -06° c. -21.2°f.
* Wind from: 190° Speed 05 kn.
Dewpoint: -06° c.
Visibility: 9 Statute Miles.
Clouds: Overcast 400 ft.

KATY 260153Z AUTO 19005KT 9SM OVC004 M06/M06 A2991 RMK AO2 SLP155 T10561061


Wind From 190°
Speed 05 kn.

 
 
jpsmedia worldairports.se 2020   terms of use